createdAt,value
2019-03-10T00:00:23.451Z,4.28
2019-03-10T00:03:53.651Z,3.99
2019-03-10T00:07:24.695Z,4.11
2019-03-10T00:10:54.747Z,2.91
2019-03-10T00:14:24.803Z,4.6
2019-03-10T00:17:54.952Z,4.46
2019-03-10T00:21:25.004Z,4.31
2019-03-10T00:24:55.207Z,4.95
2019-03-10T00:28:25.268Z,3.74
2019-03-10T00:31:55.500Z,3.69
2019-03-10T00:35:25.682Z,9.46
2019-03-10T00:39:12.874Z,9.44
2019-03-10T00:50:31.930Z,3.24
2019-03-10T00:54:01.933Z,3.54
2019-03-10T00:57:32.255Z,3.3
2019-03-10T01:01:02.400Z,3.67
2019-03-10T01:04:32.508Z,3.62
2019-03-10T01:08:03.561Z,3.83
2019-03-10T01:11:33.849Z,4.49
2019-03-10T01:15:04.785Z,3.49
2019-03-10T01:18:35.738Z,3.9
2019-03-10T01:22:05.759Z,2.9
2019-03-10T01:25:35.799Z,3.21
2019-03-10T01:29:05.713Z,4.44
2019-03-10T01:35:00.364Z,3.66
2019-03-10T01:38:30.429Z,3.52
2019-03-10T01:42:00.580Z,3.9
2019-03-10T01:45:30.632Z,2.81
2019-03-10T01:49:00.696Z,3.76
2019-03-10T01:52:30.778Z,4.35
2019-03-10T01:56:00.909Z,3.59
2019-03-10T01:59:30.881Z,3.24
2019-03-10T02:00:17.081Z,4.07
2019-03-10T02:03:47.073Z,3.89
2019-03-10T02:07:17.056Z,3.23
2019-03-10T02:10:48.137Z,8.16
2019-03-10T02:14:18.309Z,6.35
2019-03-10T02:17:48.381Z,3.59
2019-03-10T02:21:18.442Z,3.52
2019-03-10T02:24:48.490Z,3.16
2019-03-10T02:28:18.417Z,2.65
2019-03-10T02:31:48.569Z,2.71
2019-03-10T02:35:18.670Z,3.19
2019-03-10T02:38:48.723Z,4.08
2019-03-10T02:42:18.785Z,2.48
2019-03-10T02:45:48.912Z,3.58
2019-03-10T02:49:19.030Z,2.67
2019-03-10T02:52:49.181Z,4.2
2019-03-10T02:56:19.321Z,2.85
2019-03-10T02:59:49.456Z,2.73
2019-03-10T03:03:19.577Z,2.91
2019-03-10T03:06:49.669Z,3.86
2019-03-10T03:10:19.701Z,3.59
2019-03-10T03:13:50.784Z,1.98
2019-03-10T03:17:20.926Z,5.05
2019-03-10T03:20:51.087Z,3.99
2019-03-10T03:24:21.152Z,4.5
2019-03-10T03:27:51.181Z,4.08
2019-03-10T03:31:21.178Z,4.55
2019-03-10T03:34:51.319Z,4.26
2019-03-10T03:38:24.468Z,4.75
2019-03-10T03:41:54.493Z,4.19
2019-03-10T03:45:24.553Z,3.8
2019-03-10T03:48:54.674Z,5.43
2019-03-10T03:52:24.715Z,6.51
2019-03-10T03:55:55.097Z,7.3
2019-03-10T03:59:25.199Z,5.33
2019-03-10T04:00:17.130Z,7.41
2019-03-10T04:03:47.416Z,4.24
2019-03-10T04:07:17.533Z,4.97
2019-03-10T04:10:47.599Z,7.42
2019-03-10T04:14:17.758Z,5.17
2019-03-10T04:17:47.849Z,4.45
2019-03-10T04:21:17.855Z,4.95
2019-03-10T04:24:47.974Z,5.09
2019-03-10T04:28:18.026Z,3.78
2019-03-10T04:31:48.007Z,3.88
2019-03-10T04:35:18.029Z,3.55
2019-03-10T04:38:48.131Z,4.06
2019-03-10T04:42:18.133Z,5.56
2019-03-10T04:45:48.267Z,4.5
2019-03-10T04:49:18.236Z,5.42
2019-03-10T04:52:48.319Z,3.35
2019-03-10T04:56:24.672Z,4.19
2019-03-10T04:59:54.643Z,3.55
2019-03-10T05:03:24.666Z,4.15
2019-03-10T05:06:54.739Z,4.39
2019-03-10T05:10:25.249Z,3.5
2019-03-10T05:13:55.596Z,6.66
2019-03-10T05:17:26.554Z,6.52
2019-03-10T05:20:56.605Z,6.75
2019-03-10T05:24:26.708Z,6.6
2019-03-10T05:27:56.877Z,7.3
2019-03-10T05:31:26.931Z,7.55
2019-03-10T05:34:57.063Z,7.29
2019-03-10T05:38:27.025Z,7.9
2019-03-10T05:41:57.167Z,7.4
2019-03-10T05:45:27.220Z,7.86
2019-03-10T05:48:57.341Z,6.16
2019-03-10T05:52:27.393Z,5.26
2019-03-10T05:55:57.556Z,7.11
2019-03-10T05:59:27.627Z,5.89
2019-03-10T06:00:17.637Z,7.35
2019-03-10T06:03:47.770Z,6.25
2019-03-10T06:07:17.782Z,5.15
2019-03-10T06:10:48.013Z,6.01
2019-03-10T06:14:18.058Z,5.99
2019-03-10T06:17:49.050Z,6.05
2019-03-10T06:21:19.149Z,5.51
2019-03-10T06:24:49.372Z,6.34
2019-03-10T06:28:19.360Z,5.69
2019-03-10T06:31:49.466Z,5.19
2019-03-10T06:35:19.639Z,6.11
2019-03-10T06:38:49.740Z,7.21
2019-03-10T06:42:19.782Z,6.79
2019-03-10T06:45:49.844Z,6.65
2019-03-10T06:49:19.907Z,6.11
2019-03-10T06:52:50.044Z,5.78
2019-03-10T06:56:20.040Z,5.66
2019-03-10T06:59:50.236Z,5.52
2019-03-10T07:03:20.786Z,6.41
2019-03-10T07:06:51.067Z,5.51
2019-03-10T07:10:21.068Z,5.74
2019-03-10T07:13:51.121Z,6.29
2019-03-10T07:17:21.199Z,5.93
2019-03-10T07:20:51.385Z,6.56
2019-03-10T07:24:21.387Z,7.9
2019-03-10T07:27:56.952Z,5.6
2019-03-10T07:31:32.342Z,6.34
2019-03-10T07:37:28.746Z,6.75
2019-03-10T07:43:24.298Z,8.03
2019-03-10T07:47:06.351Z,7.16
2019-03-10T07:50:46.163Z,8.36
2019-03-10T07:54:22.925Z,7.91
2019-03-10T07:58:01.642Z,10.15
2019-03-10T08:01:28.657Z,11.41
2019-03-10T08:05:08.132Z,10.96
2019-03-10T08:08:49.453Z,13.19
2019-03-10T08:12:57.786Z,12.34
2019-03-10T08:16:39.489Z,9.96
2019-03-10T08:20:20.581Z,10.89
2019-03-10T08:23:57.833Z,5.35
2019-03-10T08:31:02.149Z,3.59
2019-03-10T08:34:47.672Z,3.46
2019-03-10T08:40:54.694Z,3.51
2019-03-10T08:44:38.466Z,2.9
2019-03-10T08:49:20.269Z,2.59
2019-03-10T08:52:55.911Z,3.56
2019-03-10T08:56:31.928Z,2.78
2019-03-10T09:00:08.439Z,3.74
2019-03-10T09:03:48.458Z,3.14
2019-03-10T09:10:10.043Z,3.8
2019-03-10T09:14:20.167Z,2.81
2019-03-10T09:17:59.518Z,3.55
2019-03-10T09:21:45.510Z,3.62
2019-03-10T09:25:25.038Z,3.74
2019-03-10T09:29:03.531Z,4.06
2019-03-10T09:32:43.970Z,2.05
2019-03-10T09:38:39.094Z,3.08
2019-03-10T09:42:19.343Z,4.12
2019-03-10T09:46:27.656Z,4.35
2019-03-10T09:50:09.758Z,3.8
2019-03-10T09:53:58.300Z,2.19
2019-03-10T09:58:42.884Z,2.36
2019-03-10T10:00:27.145Z,2.15
2019-03-10T10:04:05.653Z,3.41
2019-03-10T10:07:48.900Z,3.89
2019-03-10T10:11:23.871Z,4.06
2019-03-10T10:15:08.737Z,1.68
2019-03-10T10:18:46.027Z,3.01
2019-03-10T10:25:48.751Z,2.14
2019-03-10T10:30:33.474Z,1.83
2019-03-10T10:39:57.855Z,2.32
2019-03-10T10:45:13.273Z,2.16
2019-03-10T10:48:51.855Z,2.09
2019-03-10T10:52:31.505Z,1.84
2019-03-10T10:56:10.673Z,2.2
2019-03-10T11:00:04.776Z,2.48
2019-03-10T11:03:45.906Z,4.24
2019-03-10T11:09:41.650Z,1.3
2019-03-10T11:16:17.645Z,2.6
2019-03-10T11:22:49.288Z,1.91
2019-03-10T11:26:25.511Z,1.67
2019-03-10T11:30:07.685Z,2.33
2019-03-10T11:34:49.847Z,1.88
2019-03-10T11:39:33.400Z,1.59
2019-03-10T11:44:17.293Z,1.74
2019-03-10T11:47:54.566Z,1.57
2019-03-10T11:51:32.138Z,1.86
2019-03-10T11:56:15.337Z,1.39
2019-03-10T11:59:53.824Z,1.26
2019-03-10T12:01:31.315Z,2.05
2019-03-10T12:05:12.917Z,2.3
2019-03-10T12:08:52.760Z,1.2
2019-03-10T12:12:22.903Z,1.69
2019-03-10T12:15:53.095Z,1.88
2019-03-10T12:19:23.187Z,1.85
2019-03-10T12:22:53.350Z,1.49
2019-03-10T12:26:23.472Z,1.26
2019-03-10T12:29:54.505Z,1.67
2019-03-10T12:33:24.507Z,1.46
2019-03-10T12:36:54.563Z,1.29
2019-03-10T12:40:24.667Z,1.06
2019-03-10T12:43:54.724Z,1.41
2019-03-10T12:47:24.825Z,1.34
2019-03-10T12:50:54.887Z,1.54
2019-03-10T12:54:24.969Z,1.14
2019-03-10T12:57:55.081Z,1.26
2019-03-10T13:01:25.187Z,1.57
2019-03-10T13:04:55.296Z,1.3
2019-03-10T13:08:25.465Z,1.06
2019-03-10T13:11:55.581Z,1.27
2019-03-10T13:15:25.673Z,1.08
2019-03-10T13:18:55.815Z,1.4
2019-03-10T13:22:25.858Z,1.45
2019-03-10T13:25:56.080Z,1.14
2019-03-10T13:29:26.253Z,1.31
2019-03-10T13:32:58.115Z,1.38
2019-03-10T13:36:28.147Z,1.46
2019-03-10T13:39:58.310Z,1.5
2019-03-10T13:43:28.386Z,1.14
2019-03-10T13:46:58.575Z,0.89
2019-03-10T13:50:28.638Z,1.18
2019-03-10T13:53:58.779Z,1.33
2019-03-10T13:57:28.802Z,1.19
2019-03-10T14:00:17.783Z,1.44
2019-03-10T14:03:47.926Z,2.36
2019-03-10T14:07:17.969Z,1.35
2019-03-10T14:10:48.030Z,1.62
2019-03-10T14:14:18.080Z,1.77
2019-03-10T14:17:48.145Z,1.89
2019-03-10T14:21:18.259Z,1.44
2019-03-10T14:24:48.290Z,1.6
2019-03-10T14:28:18.562Z,1.41
2019-03-10T14:31:48.685Z,1.12
2019-03-10T14:35:19.758Z,1.09
2019-03-10T14:38:49.821Z,2.21
2019-03-10T14:42:19.915Z,1.46
2019-03-10T14:45:50.038Z,1.29
2019-03-10T14:49:23.463Z,1.69
2019-03-10T14:52:53.740Z,1.32
2019-03-10T14:56:23.852Z,1.55
2019-03-10T14:59:53.825Z,1.23
2019-03-10T15:03:23.924Z,2.04
2019-03-10T15:06:54.050Z,1.57
2019-03-10T15:10:24.225Z,1.34
2019-03-10T15:13:54.316Z,1.75
2019-03-10T15:17:24.427Z,1.18
2019-03-10T15:20:54.502Z,1.46
2019-03-10T15:24:24.572Z,0.84
2019-03-10T15:27:54.644Z,1.39
2019-03-10T15:31:24.757Z,1.19
2019-03-10T15:34:54.799Z,1.15
2019-03-10T15:38:25.881Z,0.75
2019-03-10T15:41:55.883Z,1.01
2019-03-10T15:45:27.808Z,1.1
2019-03-10T15:48:58.178Z,1.86
2019-03-10T15:52:28.251Z,1.94
2019-03-10T15:55:58.314Z,1.11
2019-03-10T15:59:28.445Z,1.77
2019-03-10T16:00:17.304Z,1.46
2019-03-10T16:03:47.463Z,1.46
2019-03-10T16:07:17.531Z,1.49
2019-03-10T16:10:47.635Z,2.2
2019-03-10T16:14:17.715Z,2.89
2019-03-10T16:17:47.883Z,4.22
2019-03-10T16:21:18.046Z,4.14
2019-03-10T16:24:48.034Z,4.1
2019-03-10T16:28:18.143Z,4.55
2019-03-10T16:31:48.296Z,4.71
2019-03-10T16:35:18.338Z,3.08
2019-03-10T16:38:50.038Z,2.86
2019-03-10T16:42:20.252Z,3.15
2019-03-10T16:45:50.244Z,3.1
2019-03-10T16:49:20.307Z,3.04
2019-03-10T16:52:50.349Z,3.08
2019-03-10T16:56:31.161Z,3.91
2019-03-10T17:00:01.236Z,3.79
2019-03-10T17:03:31.375Z,3.44
2019-03-10T17:07:01.378Z,3.74
2019-03-10T17:10:31.429Z,3.59
2019-03-10T17:14:02.962Z,3.32
2019-03-10T17:17:33.206Z,3.82
2019-03-10T17:21:03.320Z,3.85
2019-03-10T17:24:33.368Z,3.71
2019-03-10T17:28:03.552Z,4.16
2019-03-10T17:31:33.762Z,13.51
2019-03-10T17:35:04.114Z,8.59
2019-03-10T17:38:34.266Z,5.76
2019-03-10T17:42:04.512Z,4.11
2019-03-10T17:45:34.581Z,4.19
2019-03-10T17:49:04.713Z,3.66
2019-03-10T17:52:34.855Z,3.14
2019-03-10T17:56:05.026Z,3.3
2019-03-10T17:59:35.089Z,3.56
2019-03-10T18:00:18.860Z,3.9
2019-03-10T18:03:48.871Z,2.91
2019-03-10T18:07:19.014Z,3.79
2019-03-10T18:10:49.106Z,3.14
2019-03-10T18:14:19.208Z,4.39
2019-03-10T18:17:49.249Z,3.89
2019-03-10T18:21:19.332Z,4.11
2019-03-10T18:24:49.324Z,3.9
2019-03-10T18:28:19.496Z,4.74
2019-03-10T18:31:49.582Z,5.31
2019-03-10T18:35:19.720Z,5.72
2019-03-10T18:38:49.827Z,5.33
2019-03-10T18:42:20.864Z,4.06
2019-03-10T18:45:50.944Z,6.22
2019-03-10T18:49:21.052Z,5.9
2019-03-10T18:52:51.128Z,7.61
2019-03-10T18:56:21.213Z,5.57
2019-03-10T18:59:51.261Z,7.58
2019-03-10T19:03:21.496Z,5.24
2019-03-10T19:06:51.443Z,5.54
2019-03-10T19:10:21.501Z,5.96
2019-03-10T19:13:51.643Z,5.96
2019-03-10T19:17:21.765Z,6.09
2019-03-10T19:20:51.943Z,6.22
2019-03-10T19:24:22.141Z,6.46
2019-03-10T19:27:52.175Z,3.88
2019-03-10T19:31:22.394Z,5.38
2019-03-10T19:34:52.457Z,6.29
2019-03-10T19:38:22.508Z,5.88
2019-03-10T19:41:52.519Z,5.94
2019-03-10T19:45:22.731Z,5.24
2019-03-10T19:48:52.883Z,4.84
2019-03-10T19:52:22.945Z,5.26
2019-03-10T19:55:52.957Z,6.6
2019-03-10T19:59:23.089Z,4.88
2019-03-10T20:00:17.310Z,7.04
2019-03-10T20:03:47.232Z,5.95
2019-03-10T20:07:17.323Z,6.21
2019-03-10T20:10:47.409Z,6.03
2019-03-10T20:14:17.468Z,7.01
2019-03-10T20:17:47.592Z,8.38
2019-03-10T20:21:17.665Z,5.56
2019-03-10T20:24:47.764Z,5.86
2019-03-10T20:28:17.832Z,5.08
2019-03-10T20:31:47.908Z,6.7
2019-03-10T20:35:18.020Z,7.2
2019-03-10T20:38:48.142Z,6.75
2019-03-10T20:42:18.244Z,6.7
2019-03-10T20:45:49.249Z,6.16
2019-03-10T20:49:19.378Z,5.43
2019-03-10T20:52:49.460Z,5.64
2019-03-10T20:56:19.674Z,5.91
2019-03-10T21:00:00.003Z,6.17
2019-03-10T21:03:30.776Z,5.89
2019-03-10T21:07:00.797Z,6.72
2019-03-10T21:10:30.800Z,6.72
2019-03-10T21:14:00.912Z,7.1
2019-03-10T21:17:31.014Z,7.55
2019-03-10T21:21:01.137Z,6.79
2019-03-10T21:24:31.501Z,7.05
2019-03-10T21:28:01.488Z,6.2
2019-03-10T21:31:31.608Z,6.46
2019-03-10T21:35:01.709Z,5.95
2019-03-10T21:38:31.776Z,5.58
2019-03-10T21:42:01.823Z,7.04
2019-03-10T21:45:32.250Z,6.77
2019-03-10T21:49:03.432Z,6.49
2019-03-10T21:52:33.474Z,6.33
2019-03-10T21:56:03.436Z,5.25
2019-03-10T21:59:33.470Z,5.75
2019-03-10T22:00:16.931Z,7.64
2019-03-10T22:03:47.097Z,7.04
2019-03-10T22:07:17.163Z,6.51
2019-03-10T22:10:47.275Z,5.55
2019-03-10T22:14:17.377Z,6.79
2019-03-10T22:17:47.559Z,7.98
2019-03-10T22:21:17.675Z,6.09
2019-03-10T22:24:47.794Z,5.59
2019-03-10T22:28:17.886Z,7.04
2019-03-10T22:31:47.898Z,2.54
2019-03-10T22:35:18.054Z,7.11
2019-03-10T22:38:48.042Z,6.42
2019-03-10T22:42:18.074Z,6.89
2019-03-10T22:45:48.137Z,6.15
2019-03-10T22:49:18.370Z,7.4
2019-03-10T22:52:48.419Z,6.04
2019-03-10T22:56:18.461Z,7.16
2019-03-10T22:59:48.623Z,5.44
2019-03-10T23:03:18.747Z,7.39
2019-03-10T23:06:48.938Z,4.1
2019-03-10T23:10:19.139Z,3.89
2019-03-10T23:13:49.161Z,7.06
2019-03-10T23:17:19.633Z,6.22
2019-03-10T23:20:49.655Z,6.06
2019-03-10T23:24:19.728Z,6.46
2019-03-10T23:27:49.909Z,6.99
2019-03-10T23:31:20.082Z,5.97
2019-03-10T23:34:50.083Z,7.65
2019-03-10T23:38:20.145Z,7.46
2019-03-10T23:41:50.230Z,5.29
2019-03-10T23:45:20.299Z,7.26
2019-03-10T23:48:50.322Z,6.97
2019-03-10T23:52:21.314Z,7.59
2019-03-10T23:55:51.338Z,5.95
2019-03-10T23:59:21.468Z,6.61
